Terminal Aerodrome Forecast
Issued by NWS

Home | Current Version | Previous Version | Text Only | Print | Product List | Glossary On
Versions: 1 2 3 4 5 6 7 8 9 10 11 12 13 14 15 16
552
FTUS44 KLZK 292320
TAFHRO
TAF
KHRO 292320Z 3000/3024 26007KT P6SM SCT150 BKN250
     FM300300 VRB04KT P6SM SCT250
     FM301500 27009KT P6SM SCT100 SCT250=

USA.gov is the U.S. government's official web portal to all federal, state and local government web resources and services.